Time,TemperatureF,DewpointF,PressureIn,WindDirection,WindDirectionDegrees,WindSpeedMPH,WindSpeedGustMPH,Humidity,HourlyPrecipIn,Conditions,Clouds,dailyrainin,SoftwareType,DateUTC
2013-01-05 00:00:00,7.5,-10.8,31.66,SW,225,0.0,0.0,42,0.00,,,0.00,meteohub,2013-01-05 07:00:00,
2013-01-05 00:05:00,7.2,-11.2,31.67,SW,225,0.0,0.0,42,0.00,,,0.00,meteohub,2013-01-05 07:05:00,
2013-01-05 00:10:00,6.8,-11.4,31.66,South,180,0.0,0.0,42,0.00,,,0.00,meteohub,2013-01-05 07:10:00,
2013-01-05 00:15:00,6.6,-11.2,31.66,SW,225,0.0,0.0,43,0.00,,,0.00,meteohub,2013-01-05 07:15:00,
2013-01-05 00:21:00,6.3,-11.0,31.66,SW,225,0.0,0.0,44,0.00,,,0.00,meteohub,2013-01-05 07:21:00,
2013-01-05 00:26:00,6.1,-11.2,31.66,West,270,0.0,0.0,44,0.00,,,0.00,meteohub,2013-01-05 07:26:00,
2013-01-05 00:32:00,6.1,-11.2,31.67,SW,225,0.0,0.0,44,0.00,,,0.00,meteohub,2013-01-05 07:32:00,
2013-01-05 00:37:00,6.1,-10.7,31.67,SW,225,0.0,0.0,45,0.00,,,0.00,meteohub,2013-01-05 07:37:00,
2013-01-05 00:42:00,6.1,-10.7,31.67,West,270,0.0,0.0,45,0.00,,,0.00,meteohub,2013-01-05 07:42:00,
2013-01-05 00:47:00,6.3,-10.5,31.67,SW,225,0.0,0.0,45,0.00,,,0.00,meteohub,2013-01-05 07:47:00,
2013-01-05 00:52:00,6.4,-10.3,31.67,NW,315,2.0,0.0,45,0.00,,,0.00,meteohub,2013-01-05 07:52:00,
2013-01-05 00:57:00,6.6,-10.3,31.67,West,270,0.0,2.0,45,0.00,,,0.00,meteohub,2013-01-05 07:57:00,
2013-01-05 01:02:00,6.4,-10.3,31.67,SW,225,0.0,2.0,45,0.00,,,0.00,meteohub,2013-01-05 08:02:00,
2013-01-05 01:07:00,6.4,-10.3,31.67,SW,225,0.0,2.0,45,0.00,,,0.00,meteohub,2013-01-05 08:07:00,
2013-01-05 01:12:00,6.3,-10.5,31.67,SW,225,0.0,2.0,45,0.00,,,0.00,meteohub,2013-01-05 08:12:00,
2013-01-05 01:17:00,6.1,-10.7,31.68,SW,225,0.0,0.0,45,0.00,,,0.00,meteohub,2013-01-05 08:17:00,
2013-01-05 01:22:00,5.9,-10.8,31.68,NW,315,0.0,0.0,45,0.00,,,0.00,meteohub,2013-01-05 08:22:00,
2013-01-05 01:27:00,5.9,-10.8,31.68,West,270,0.0,0.0,45,0.00,,,0.00,meteohub,2013-01-05 08:27:00,
2013-01-05 01:32:00,6.3,-10.5,31.68,West,270,0.0,0.0,45,0.00,,,0.00,meteohub,2013-01-05 08:32:00,
2013-01-05 01:37:00,6.6,-10.3,31.68,North,0,0.0,0.0,45,0.00,,,0.00,meteohub,2013-01-05 08:37:00,
2013-01-05 01:42:00,6.6,-10.3,31.69,SW,225,0.0,0.0,45,0.00,,,0.00,meteohub,2013-01-05 08:42:00,
2013-01-05 01:47:00,6.4,-10.3,31.69,SW,225,0.0,0.0,45,0.00,,,0.00,meteohub,2013-01-05 08:47:00,
2013-01-05 01:52:00,6.1,-10.7,31.69,SW,225,0.0,0.0,45,0.00,,,0.00,meteohub,2013-01-05 08:52:00,
2013-01-05 01:57:00,5.7,-11.6,31.69,SW,225,0.0,0.0,44,0.00,,,0.00,meteohub,2013-01-05 08:57:00,
2013-01-05 02:02:00,5.4,-11.7,31.70,SW,225,0.0,0.0,44,0.00,,,0.00,meteohub,2013-01-05 09:02:00,
2013-01-05 02:07:00,4.8,-11.9,31.70,West,270,2.0,0.0,45,0.00,,,0.00,meteohub,2013-01-05 09:07:00,
2013-01-05 02:12:00,5.4,-11.4,31.70,West,270,0.0,3.0,45,0.00,,,0.00,meteohub,2013-01-05 09:12:00,
2013-01-05 02:17:00,6.1,-10.7,31.71,West,270,3.0,3.0,45,0.00,,,0.00,meteohub,2013-01-05 09:17:00,
2013-01-05 02:22:00,6.8,-10.5,31.71,West,270,2.0,4.0,44,0.00,,,0.00,meteohub,2013-01-05 09:22:00,
2013-01-05 02:27:00,7.3,-9.9,31.71,West,270,2.0,4.0,44,0.00,,,0.00,meteohub,2013-01-05 09:27:00,
2013-01-05 02:32:00,7.5,-10.3,31.71,WSW,248,2.0,4.0,43,0.00,,,0.00,meteohub,2013-01-05 09:32:00,
2013-01-05 02:37:00,7.9,-10.5,31.71,SW,225,2.0,4.0,42,0.00,,,0.00,meteohub,2013-01-05 09:37:00,
2013-01-05 02:42:00,8.2,-10.1,31.71,West,270,0.0,4.0,42,0.00,,,0.00,meteohub,2013-01-05 09:42:00,
2013-01-05 02:47:00,8.2,-10.1,31.71,West,270,4.0,4.0,42,0.00,,,0.00,meteohub,2013-01-05 09:47:00,
2013-01-05 02:52:00,8.8,-11.2,31.71,West,270,4.0,4.0,39,0.00,,,0.00,meteohub,2013-01-05 09:52:00,
2013-01-05 02:58:00,9.5,-11.6,31.71,West,270,3.0,5.0,37,0.00,,,0.00,meteohub,2013-01-05 09:58:00,
2013-01-05 03:04:00,9.7,-11.4,31.71,West,270,4.0,5.0,37,0.00,,,0.00,meteohub,2013-01-05 10:04:00,
2013-01-05 03:09:00,10.9,-9.2,31.71,West,270,4.0,4.0,39,0.00,,,0.00,meteohub,2013-01-05 10:09:00,
2013-01-05 03:14:00,11.3,-9.4,31.71,West,270,4.0,4.0,38,0.00,,,0.00,meteohub,2013-01-05 10:14:00,
2013-01-05 03:20:00,11.5,-9.8,31.71,NW,315,2.0,7.0,37,0.00,,,0.00,meteohub,2013-01-05 10:20:00,
2013-01-05 03:25:00,11.1,-10.7,31.71,West,270,3.0,7.0,36,0.00,,,0.00,meteohub,2013-01-05 10:25:00,
2013-01-05 03:31:00,10.9,-10.8,31.71,West,270,4.0,6.0,36,0.00,,,0.00,meteohub,2013-01-05 10:31:00,
2013-01-05 03:36:00,10.9,-10.8,31.71,West,270,2.0,6.0,36,0.00,,,0.00,meteohub,2013-01-05 10:36:00,
2013-01-05 03:41:00,11.1,-10.7,31.71,West,270,3.0,6.0,36,0.00,,,0.00,meteohub,2013-01-05 10:41:00,
2013-01-05 03:47:00,11.3,-10.5,31.72,West,270,4.0,5.0,36,0.00,,,0.00,meteohub,2013-01-05 10:47:00,
2013-01-05 03:52:00,11.1,-10.7,31.72,West,270,4.0,5.0,36,0.00,,,0.00,meteohub,2013-01-05 10:52:00,
2013-01-05 03:57:00,10.4,-11.9,31.71,NW,315,2.0,5.0,35,0.00,,,0.00,meteohub,2013-01-05 10:57:00,
2013-01-05 04:03:00,9.9,-14.1,31.72,West,270,2.0,4.0,32,0.00,,,0.00,meteohub,2013-01-05 11:03:00,
2013-01-05 04:08:00,9.3,-14.6,31.72,West,270,4.0,4.0,32,0.00,,,0.00,meteohub,2013-01-05 11:08:00,
2013-01-05 04:14:00,8.4,-14.8,31.72,West,270,3.0,3.0,33,0.00,,,0.00,meteohub,2013-01-05 11:14:00,
2013-01-05 04:20:00,7.9,-14.6,31.71,West,270,4.0,4.0,34,0.00,,,0.00,meteohub,2013-01-05 11:20:00,
2013-01-05 04:25:00,7.7,-14.8,31.72,West,270,7.0,7.0,34,0.00,,,0.00,meteohub,2013-01-05 11:25:00,
2013-01-05 04:31:00,8.2,-13.7,31.72,West,270,2.0,7.0,35,0.00,,,0.00,meteohub,2013-01-05 11:31:00,
2013-01-05 04:37:00,8.2,-13.7,31.72,West,270,1.0,7.0,35,0.00,,,0.00,meteohub,2013-01-05 11:37:00,
2013-01-05 04:42:00,8.2,-14.4,31.72,East,90,0.0,7.0,34,0.00,,,0.00,meteohub,2013-01-05 11:42:00,
2013-01-05 04:47:00,7.7,-14.8,31.72,East,90,0.0,3.0,34,0.00,,,0.00,meteohub,2013-01-05 11:47:00,
2013-01-05 04:52:00,6.3,-16.1,31.72,SW,225,0.0,3.0,34,0.00,,,0.00,meteohub,2013-01-05 11:52:00,
2013-01-05 04:57:00,5.2,-17.1,31.73,SW,225,0.0,0.0,34,0.00,,,0.00,meteohub,2013-01-05 11:57:00,
2013-01-05 05:02:00,4.5,-17.1,31.72,SW,225,0.0,0.0,35,0.00,,,0.00,meteohub,2013-01-05 12:02:00,
2013-01-05 05:07:00,4.5,-17.1,31.73,SW,225,0.0,0.0,35,0.00,,,0.00,meteohub,2013-01-05 12:07:00,
2013-01-05 05:12:00,2.3,-18.0,31.72,South,180,0.0,0.0,37,0.00,,,0.00,meteohub,2013-01-05 12:12:00,
2013-01-05 05:17:00,1.8,-18.0,31.72,SW,225,0.0,0.0,38,0.00,,,0.00,meteohub,2013-01-05 12:17:00,
2013-01-05 05:22:00,1.2,-20.0,31.72,SW,225,2.0,0.0,35,0.00,,,0.00,meteohub,2013-01-05 12:22:00,
2013-01-05 05:27:00,1.9,-15.3,31.72,WNW,293,1.0,2.0,43,0.00,,,0.00,meteohub,2013-01-05 12:27:00,
2013-01-05 05:32:00,4.1,-13.0,31.72,West,270,2.0,2.0,44,0.00,,,0.00,meteohub,2013-01-05 12:32:00,
2013-01-05 05:37:00,5.0,-12.6,31.73,West,270,0.0,2.0,43,0.00,,,0.00,meteohub,2013-01-05 12:37:00,
2013-01-05 05:42:00,5.0,-12.6,31.73,NE,45,0.0,2.0,43,0.00,,,0.00,meteohub,2013-01-05 12:42:00,
2013-01-05 05:47:00,5.0,-13.5,31.73,NE,45,0.0,2.0,41,0.00,,,0.00,meteohub,2013-01-05 12:47:00,
2013-01-05 05:52:00,4.6,-13.9,31.73,SW,225,0.0,2.0,41,0.00,,,0.00,meteohub,2013-01-05 12:52:00,
2013-01-05 05:57:00,3.9,-15.0,31.73,SW,225,0.0,0.0,40,0.00,,,0.00,meteohub,2013-01-05 12:57:00,
2013-01-05 06:02:00,3.2,-15.7,31.74,West,270,3.0,0.0,40,0.00,,,0.00,meteohub,2013-01-05 13:02:00,
2013-01-05 06:07:00,4.1,-13.9,31.74,West,270,4.0,4.0,42,0.00,,,0.00,meteohub,2013-01-05 13:07:00,
2013-01-05 06:12:00,5.2,-12.5,31.74,West,270,4.0,4.0,43,0.00,,,0.00,meteohub,2013-01-05 13:12:00,
2013-01-05 06:17:00,6.3,-11.9,31.74,WSW,248,5.0,5.0,42,0.00,,,0.00,meteohub,2013-01-05 13:17:00,
2013-01-05 06:22:00,7.7,-12.1,31.74,West,270,3.0,6.0,39,0.00,,,0.00,meteohub,2013-01-05 13:22:00,
2013-01-05 06:27:00,8.2,-12.6,31.74,West,270,4.0,6.0,37,0.00,,,0.00,meteohub,2013-01-05 13:27:00,
2013-01-05 06:32:00,8.4,-13.5,31.74,West,270,4.0,6.0,35,0.00,,,0.00,meteohub,2013-01-05 13:32:00,
2013-01-05 06:38:00,9.0,-14.3,31.75,East,90,0.0,6.0,33,0.00,,,0.00,meteohub,2013-01-05 13:38:00,
2013-01-05 06:44:00,7.9,-15.3,31.75,South,180,0.0,6.0,33,0.00,,,0.00,meteohub,2013-01-05 13:44:00,
2013-01-05 06:49:00,6.3,-16.8,31.75,South,180,0.0,6.0,33,0.00,,,0.00,meteohub,2013-01-05 13:49:00,
2013-01-05 06:54:00,4.8,-17.3,31.75,South,180,0.0,3.0,34,0.00,,,0.00,meteohub,2013-01-05 13:54:00,
2013-01-05 07:00:00,3.4,-18.2,31.75,SW,225,0.0,0.0,35,0.00,,,0.00,meteohub,2013-01-05 14:00:00,
2013-01-05 07:06:00,3.4,-18.2,31.75,SW,225,0.0,0.0,35,0.00,,,0.00,meteohub,2013-01-05 14:06:00,
2013-01-05 07:11:00,2.3,-17.5,31.75,North,0,0.0,0.0,38,0.00,,,0.00,meteohub,2013-01-05 14:11:00,
2013-01-05 07:17:00,2.3,-17.0,31.76,South,180,0.0,0.0,39,0.00,,,0.00,meteohub,2013-01-05 14:17:00,
2013-01-05 07:22:00,2.5,-16.4,31.76,NE,45,0.0,0.0,40,0.00,,,0.00,meteohub,2013-01-05 14:22:00,
2013-01-05 07:27:00,2.3,-16.4,31.76,NE,45,0.0,0.0,40,0.00,,,0.00,meteohub,2013-01-05 14:27:00,
2013-01-05 07:32:00,2.1,-16.2,31.76,SW,225,0.0,0.0,41,0.00,,,0.00,meteohub,2013-01-05 14:32:00,
2013-01-05 07:37:00,1.8,-16.6,31.76,SW,225,0.0,0.0,41,0.00,,,0.00,meteohub,2013-01-05 14:37:00,
2013-01-05 07:42:00,1.6,-16.6,31.76,SW,225,0.0,0.0,41,0.00,,,0.00,meteohub,2013-01-05 14:42:00,
2013-01-05 07:47:00,1.2,-18.9,31.77,SW,225,2.0,0.0,37,0.00,,,0.00,meteohub,2013-01-05 14:47:00,
2013-01-05 07:52:00,2.3,-15.2,31.76,West,270,2.0,2.0,43,0.00,,,0.00,meteohub,2013-01-05 14:52:00,
2013-01-05 07:57:00,4.5,-12.6,31.76,NW,315,0.0,4.0,44,0.00,,,0.00,meteohub,2013-01-05 14:57:00,
2013-01-05 08:02:00,7.2,-11.2,31.77,NW,315,3.0,6.0,42,0.00,,,0.00,meteohub,2013-01-05 15:02:00,
2013-01-05 08:07:00,8.2,-11.6,31.77,NW,315,0.0,6.0,39,0.00,,,0.00,meteohub,2013-01-05 15:07:00,
2013-01-05 08:12:00,8.1,-12.8,31.77,SW,225,5.0,5.0,37,0.00,,,0.00,meteohub,2013-01-05 15:12:00,
2013-01-05 08:17:00,9.1,-13.0,31.78,NW,315,2.0,5.0,35,0.00,,,0.00,meteohub,2013-01-05 15:17:00,
2013-01-05 08:22:00,11.5,-8.7,31.78,West,270,3.0,5.0,39,0.00,,,0.00,meteohub,2013-01-05 15:22:00,
2013-01-05 08:27:00,13.5,-9.0,31.77,West,270,7.0,7.0,35,0.00,,,0.00,meteohub,2013-01-05 15:27:00,
2013-01-05 08:32:00,15.1,-9.4,31.78,West,270,5.0,5.0,32,0.00,,,0.00,meteohub,2013-01-05 15:32:00,
2013-01-05 08:38:00,16.5,-10.8,31.78,SW,225,6.0,7.0,28,0.00,,,0.00,meteohub,2013-01-05 15:38:00,
2013-01-05 08:44:00,18.3,-10.8,31.78,West,270,6.0,7.0,26,0.00,,,0.00,meteohub,2013-01-05 15:44:00,
2013-01-05 08:49:00,19.9,-8.0,31.78,NW,315,2.0,7.0,28,0.00,,,0.00,meteohub,2013-01-05 15:49:00,
2013-01-05 08:54:00,21.6,-7.2,31.77,West,270,2.0,7.0,27,0.00,,,0.00,meteohub,2013-01-05 15:54:00,
2013-01-05 09:00:00,23.0,-6.9,31.77,West,270,3.0,6.0,26,0.00,,,0.00,meteohub,2013-01-05 16:00:00,
2013-01-05 09:05:00,23.0,-6.9,31.78,West,270,3.0,4.0,26,0.00,,,0.00,meteohub,2013-01-05 16:05:00,
2013-01-05 09:11:00,24.8,-6.9,31.78,NW,315,2.0,4.0,24,0.00,,,0.00,meteohub,2013-01-05 16:11:00,
2013-01-05 09:16:00,25.9,-6.0,31.78,West,270,4.0,4.0,24,0.00,,,0.00,meteohub,2013-01-05 16:16:00,
2013-01-05 09:22:00,26.6,-7.1,31.77,West,270,3.0,5.0,22,0.00,,,0.00,meteohub,2013-01-05 16:22:00,
2013-01-05 09:27:00,27.3,-6.5,31.77,West,270,3.0,5.0,22,0.00,,,0.00,meteohub,2013-01-05 16:27:00,
2013-01-05 09:32:00,28.0,-6.0,31.77,West,270,4.0,5.0,22,0.00,,,0.00,meteohub,2013-01-05 16:32:00,
2013-01-05 09:38:00,28.6,-2.0,31.77,NW,315,4.0,5.0,26,0.00,,,0.00,meteohub,2013-01-05 16:38:00,
2013-01-05 09:43:00,28.9,-1.7,31.77,North,0,3.0,5.0,26,0.00,,,0.00,meteohub,2013-01-05 16:43:00,
2013-01-05 09:48:00,29.3,-1.3,31.77,SW,225,0.0,5.0,26,0.00,,,0.00,meteohub,2013-01-05 16:48:00,
2013-01-05 09:54:00,30.4,-1.3,31.77,NW,315,2.0,4.0,25,0.00,,,0.00,meteohub,2013-01-05 16:54:00,
2013-01-05 09:59:00,30.9,-0.8,31.77,North,0,1.0,4.0,25,0.00,,,0.00,meteohub,2013-01-05 16:59:00,
2013-01-05 10:05:00,31.1,-1.5,31.76,North,0,2.0,4.0,24,0.00,,,0.00,meteohub,2013-01-05 17:05:00,
2013-01-05 10:10:00,30.9,-1.7,31.76,North,0,2.0,4.0,24,0.00,,,0.00,meteohub,2013-01-05 17:10:00,
2013-01-05 10:16:00,30.6,-2.0,31.76,NNW,338,2.0,4.0,24,0.00,,,0.00,meteohub,2013-01-05 17:16:00,
2013-01-05 10:22:00,30.6,-2.0,31.76,NW,315,3.0,4.0,24,0.00,,,0.00,meteohub,2013-01-05 17:22:00,
2013-01-05 10:27:00,30.6,-2.0,31.76,NW,315,2.0,5.0,24,0.00,,,0.00,meteohub,2013-01-05 17:27:00,
2013-01-05 10:32:00,30.9,-1.7,31.76,WNW,293,4.0,5.0,24,0.00,,,0.00,meteohub,2013-01-05 17:32:00,
2013-01-05 10:37:00,30.7,-1.8,31.75,West,270,1.0,5.0,24,0.00,,,0.00,meteohub,2013-01-05 17:37:00,
2013-01-05 10:42:00,30.9,-1.7,31.76,North,0,2.0,4.0,24,0.00,,,0.00,meteohub,2013-01-05 17:42:00,
2013-01-05 10:47:00,30.9,-1.7,31.76,NE,45,0.0,5.0,24,0.00,,,0.00,meteohub,2013-01-05 17:47:00,
2013-01-05 10:53:00,31.5,-1.1,31.75,NE,45,3.0,5.0,24,0.00,,,0.00,meteohub,2013-01-05 17:53:00,
2013-01-05 10:58:00,32.0,-1.7,31.75,NE,45,2.0,5.0,23,0.00,,,0.00,meteohub,2013-01-05 17:58:00,
2013-01-05 11:04:00,32.4,-1.3,31.75,NW,315,3.0,4.0,23,0.00,,,0.00,meteohub,2013-01-05 18:04:00,
2013-01-05 11:09:00,33.8,-1.1,31.75,NE,45,4.0,4.0,22,0.00,,,0.00,meteohub,2013-01-05 18:09:00,
2013-01-05 11:14:00,34.9,0.0,31.75,NW,315,5.0,5.0,22,0.00,,,0.00,meteohub,2013-01-05 18:14:00,
2013-01-05 11:19:00,35.6,-0.6,31.75,East,90,3.0,5.0,21,0.00,,,0.00,meteohub,2013-01-05 18:19:00,
2013-01-05 11:25:00,36.5,0.3,31.74,NE,45,3.0,5.0,21,0.00,,,0.00,meteohub,2013-01-05 18:25:00,
2013-01-05 11:31:00,36.5,0.3,31.75,East,90,4.0,6.0,21,0.00,,,0.00,meteohub,2013-01-05 18:31:00,
2013-01-05 11:36:00,37.0,0.7,31.74,North,0,4.0,7.0,21,0.00,,,0.00,meteohub,2013-01-05 18:36:00,
2013-01-05 11:42:00,37.8,5.0,31.74,NE,45,0.0,7.0,25,0.00,,,0.00,meteohub,2013-01-05 18:42:00,
2013-01-05 11:47:00,38.3,5.5,31.74,SW,225,1.0,6.0,25,0.00,,,0.00,meteohub,2013-01-05 18:47:00,
2013-01-05 11:53:00,39.2,5.4,31.74,NE,45,5.0,6.0,24,0.00,,,0.00,meteohub,2013-01-05 18:53:00,
2013-01-05 11:59:00,38.8,6.1,31.74,NE,45,3.0,8.0,25,0.00,,,0.00,meteohub,2013-01-05 18:59:00,
2013-01-05 12:04:00,39.0,6.1,31.74,NE,45,1.0,8.0,25,0.00,,,0.00,meteohub,2013-01-05 19:04:00,
2013-01-05 12:09:00,39.9,6.1,31.73,East,90,4.0,8.0,24,0.00,,,0.00,meteohub,2013-01-05 19:09:00,
2013-01-05 12:15:00,39.7,5.9,31.74,NW,315,4.0,9.0,24,0.00,,,0.00,meteohub,2013-01-05 19:15:00,
2013-01-05 12:21:00,40.5,6.4,31.73,NNE,23,6.0,9.0,24,0.00,,,0.00,meteohub,2013-01-05 19:21:00,
2013-01-05 12:26:00,39.7,5.9,31.74,NW,315,1.0,9.0,24,0.00,,,0.00,meteohub,2013-01-05 19:26:00,
2013-01-05 12:31:00,40.6,6.6,31.73,North,0,2.0,7.0,24,0.00,,,0.00,meteohub,2013-01-05 19:31:00,
2013-01-05 12:36:00,41.4,6.3,31.74,North,0,2.0,7.0,23,0.00,,,0.00,meteohub,2013-01-05 19:36:00,
2013-01-05 12:42:00,41.4,6.3,31.74,North,0,7.0,7.0,23,0.00,,,0.00,meteohub,2013-01-05 19:42:00,
2013-01-05 12:47:00,40.3,6.3,31.74,NE,45,8.0,8.0,24,0.00,,,0.00,meteohub,2013-01-05 19:47:00,
2013-01-05 12:52:00,39.7,5.9,31.74,South,180,7.0,9.0,24,0.00,,,0.00,meteohub,2013-01-05 19:52:00,
2013-01-05 12:57:00,39.7,5.9,31.74,SE,135,3.0,9.0,24,0.00,,,0.00,meteohub,2013-01-05 19:57:00,
2013-01-05 13:02:00,39.6,5.7,31.73,NW,315,2.0,9.0,24,0.00,,,0.00,meteohub,2013-01-05 20:02:00,
2013-01-05 13:07:00,39.6,5.7,31.74,NW,315,2.0,9.0,24,0.00,,,0.00,meteohub,2013-01-05 20:07:00,
2013-01-05 13:13:00,39.0,6.1,31.74,NW,315,4.0,9.0,25,0.00,,,0.00,meteohub,2013-01-05 20:13:00,
2013-01-05 13:18:00,38.1,5.4,31.73,West,270,4.0,8.0,25,0.00,,,0.00,meteohub,2013-01-05 20:18:00,
2013-01-05 13:24:00,37.6,5.0,31.74,West,270,8.0,10.0,25,0.00,,,0.00,meteohub,2013-01-05 20:24:00,
2013-01-05 13:30:00,36.0,-0.2,31.74,North,0,8.0,10.0,21,0.00,,,0.00,meteohub,2013-01-05 20:30:00,
2013-01-05 13:35:00,35.4,0.3,31.74,NW,315,4.0,16.0,22,0.00,,,0.00,meteohub,2013-01-05 20:35:00,
2013-01-05 13:41:00,35.2,1.0,31.74,NE,45,3.0,11.0,23,0.00,,,0.00,meteohub,2013-01-05 20:41:00,
2013-01-05 13:46:00,35.1,1.0,31.74,North,0,6.0,11.0,23,0.00,,,0.00,meteohub,2013-01-05 20:46:00,
2013-01-05 13:51:00,35.1,0.0,31.74,NW,315,8.0,11.0,22,0.00,,,0.00,meteohub,2013-01-05 20:51:00,
2013-01-05 13:57:00,35.1,1.0,31.74,North,0,4.0,10.0,23,0.00,,,0.00,meteohub,2013-01-05 20:57:00,
2013-01-05 14:02:00,35.1,1.0,31.74,WNW,293,4.0,11.0,23,0.00,,,0.00,meteohub,2013-01-05 21:02:00,
2013-01-05 14:07:00,35.2,1.0,31.75,NW,315,6.0,11.0,23,0.00,,,0.00,meteohub,2013-01-05 21:07:00,
2013-01-05 14:12:00,35.4,0.3,31.75,North,0,2.0,11.0,22,0.00,,,0.00,meteohub,2013-01-05 21:12:00,
2013-01-05 14:17:00,35.6,0.5,31.75,NW,315,4.0,8.0,22,0.00,,,0.00,meteohub,2013-01-05 21:17:00,
2013-01-05 14:22:00,35.8,-0.4,31.75,NW,315,5.0,8.0,21,0.00,,,0.00,meteohub,2013-01-05 21:22:00,
2013-01-05 14:27:00,35.8,-0.4,31.75,North,0,9.0,9.0,21,0.00,,,0.00,meteohub,2013-01-05 21:27:00,
2013-01-05 14:32:00,35.4,0.3,31.75,NW,315,5.0,9.0,22,0.00,,,0.00,meteohub,2013-01-05 21:32:00,
2013-01-05 14:37:00,35.2,0.1,31.75,NNW,338,4.0,9.0,22,0.00,,,0.00,meteohub,2013-01-05 21:37:00,
2013-01-05 14:42:00,34.9,0.9,31.76,NW,315,8.0,11.0,23,0.00,,,0.00,meteohub,2013-01-05 21:42:00,
2013-01-05 14:47:00,34.7,-0.2,31.76,East,90,4.0,11.0,22,0.00,,,0.00,meteohub,2013-01-05 21:47:00,
2013-01-05 14:52:00,34.3,-0.6,31.76,NW,315,8.0,11.0,22,0.00,,,0.00,meteohub,2013-01-05 21:52:00,
2013-01-05 14:57:00,34.0,-0.9,31.76,NW,315,7.0,9.0,22,0.00,,,0.00,meteohub,2013-01-05 21:57:00,
2013-01-05 15:03:00,34.0,-0.9,31.76,West,270,8.0,9.0,22,0.00,,,0.00,meteohub,2013-01-05 22:03:00,
2013-01-05 15:08:00,34.0,-0.9,31.77,SW,225,4.0,9.0,22,0.00,,,0.00,meteohub,2013-01-05 22:08:00,
2013-01-05 15:13:00,33.6,0.7,31.77,NW,315,3.0,8.0,24,0.00,,,0.00,meteohub,2013-01-05 22:13:00,
2013-01-05 15:19:00,33.3,0.3,31.77,West,270,2.0,8.0,24,0.00,,,0.00,meteohub,2013-01-05 22:19:00,
2013-01-05 15:24:00,32.9,0.0,31.77,NE,45,2.0,8.0,24,0.00,,,0.00,meteohub,2013-01-05 22:24:00,
2013-01-05 15:29:00,32.5,-0.2,31.77,SE,135,2.0,6.0,24,0.00,,,0.00,meteohub,2013-01-05 22:29:00,
2013-01-05 15:35:00,32.4,-0.4,31.77,NW,315,2.0,7.0,24,0.00,,,0.00,meteohub,2013-01-05 22:35:00,
2013-01-05 15:41:00,32.2,-0.6,31.78,South,180,4.0,7.0,24,0.00,,,0.00,meteohub,2013-01-05 22:41:00,
2013-01-05 15:46:00,32.4,-0.4,31.78,NW,315,0.0,4.0,24,0.00,,,0.00,meteohub,2013-01-05 22:46:00,
2013-01-05 15:52:00,32.9,0.0,31.78,South,180,2.0,4.0,24,0.00,,,0.00,meteohub,2013-01-05 22:52:00,
2013-01-05 15:57:00,32.7,0.0,31.78,East,90,2.0,4.0,24,0.00,,,0.00,meteohub,2013-01-05 22:57:00,
2013-01-05 16:02:00,32.0,-0.8,31.78,NW,315,2.0,5.0,24,0.00,,,0.00,meteohub,2013-01-05 23:02:00,
2013-01-05 16:08:00,30.9,-0.8,31.78,West,270,4.0,5.0,25,0.00,,,0.00,meteohub,2013-01-05 23:08:00,
2013-01-05 16:13:00,30.2,-1.5,31.78,West,270,3.0,5.0,25,0.00,,,0.00,meteohub,2013-01-05 23:13:00,
2013-01-05 16:19:00,29.7,-1.1,31.78,NW,315,2.0,5.0,26,0.00,,,0.00,meteohub,2013-01-05 23:19:00,
2013-01-05 16:24:00,29.1,-1.5,31.78,SE,135,4.0,6.0,26,0.00,,,0.00,meteohub,2013-01-05 23:24:00,
2013-01-05 16:29:00,28.6,-2.0,31.78,North,0,4.0,6.0,26,0.00,,,0.00,meteohub,2013-01-05 23:29:00,
2013-01-05 16:35:00,28.2,-5.8,31.79,NW,315,4.0,8.0,22,0.00,,,0.00,meteohub,2013-01-05 23:35:00,
2013-01-05 16:40:00,27.9,-5.1,31.79,West,270,2.0,8.0,23,0.00,,,0.00,meteohub,2013-01-05 23:40:00,
2013-01-05 16:45:00,27.5,-6.3,31.79,East,90,3.0,8.0,22,0.00,,,0.00,meteohub,2013-01-05 23:45:00,
2013-01-05 16:51:00,26.6,-6.2,31.80,SE,135,3.0,4.0,23,0.00,,,0.00,meteohub,2013-01-05 23:51:00,
2013-01-05 16:57:00,25.7,-6.2,31.80,South,180,2.0,3.0,24,0.00,,,0.00,meteohub,2013-01-05 23:57:00,
2013-01-05 17:02:00,25.3,-6.3,31.80,SE,135,4.0,4.0,24,0.00,,,0.00,meteohub,2013-01-06 00:02:00,
2013-01-05 17:07:00,25.3,-6.3,31.80,SE,135,4.0,4.0,24,0.00,,,0.00,meteohub,2013-01-06 00:07:00,
2013-01-05 17:12:00,25.0,-6.0,31.81,SW,225,1.0,8.0,25,0.00,,,0.00,meteohub,2013-01-06 00:12:00,
2013-01-05 17:17:00,25.0,-6.0,31.81,West,270,2.0,8.0,25,0.00,,,0.00,meteohub,2013-01-06 00:17:00,
2013-01-05 17:22:00,24.8,-6.0,31.81,West,270,3.0,8.0,25,0.00,,,0.00,meteohub,2013-01-06 00:22:00,
2013-01-05 17:27:00,24.6,-5.4,31.81,NW,315,4.0,7.0,26,0.00,,,0.00,meteohub,2013-01-06 00:27:00,
2013-01-05 17:32:00,24.3,-5.6,31.81,WSW,248,4.0,7.0,26,0.00,,,0.00,meteohub,2013-01-06 00:32:00,
2013-01-05 17:37:00,24.3,-5.6,31.81,WNW,293,4.0,7.0,26,0.00,,,0.00,meteohub,2013-01-06 00:37:00,
2013-01-05 17:42:00,24.3,-5.6,31.82,SW,225,4.0,8.0,26,0.00,,,0.00,meteohub,2013-01-06 00:42:00,
2013-01-05 17:48:00,23.9,-6.0,31.82,West,270,3.0,8.0,26,0.00,,,0.00,meteohub,2013-01-06 00:48:00,
2013-01-05 17:53:00,23.5,-6.3,31.82,West,270,3.0,7.0,26,0.00,,,0.00,meteohub,2013-01-06 00:53:00,
2013-01-05 17:59:00,23.2,-6.7,31.82,SW,225,3.0,7.0,26,0.00,,,0.00,meteohub,2013-01-06 00:59:00,
2013-01-05 18:05:00,22.8,-6.2,31.83,WSW,248,3.0,4.0,27,0.00,,,0.00,meteohub,2013-01-06 01:05:00,
2013-01-05 18:10:00,22.5,-6.5,31.83,SW,225,1.0,4.0,27,0.00,,,0.00,meteohub,2013-01-06 01:10:00,
2013-01-05 18:16:00,22.1,-6.9,31.83,SE,135,0.0,4.0,27,0.00,,,0.00,meteohub,2013-01-06 01:16:00,
2013-01-05 18:21:00,21.6,-7.2,31.83,SW,225,2.0,4.0,27,0.00,,,0.00,meteohub,2013-01-06 01:21:00,
2013-01-05 18:27:00,21.4,-7.4,31.83,West,270,0.0,3.0,27,0.00,,,0.00,meteohub,2013-01-06 01:27:00,
2013-01-05 18:32:00,21.4,-7.4,31.83,SE,135,0.0,4.0,27,0.00,,,0.00,meteohub,2013-01-06 01:32:00,
2013-01-05 18:37:00,21.2,-7.6,31.83,West,270,0.0,4.0,27,0.00,,,0.00,meteohub,2013-01-06 01:37:00,
2013-01-05 18:43:00,21.2,-7.6,31.83,West,270,0.0,4.0,27,0.00,,,0.00,meteohub,2013-01-06 01:43:00,
2013-01-05 18:48:00,20.8,-7.1,31.83,West,270,3.0,4.0,28,0.00,,,0.00,meteohub,2013-01-06 01:48:00,
2013-01-05 18:54:00,20.5,-7.4,31.83,West,270,2.0,4.0,28,0.00,,,0.00,meteohub,2013-01-06 01:54:00,
2013-01-05 18:59:00,20.1,-7.8,31.84,West,270,3.0,4.0,28,0.00,,,0.00,meteohub,2013-01-06 01:59:00,
2013-01-05 19:05:00,20.3,-7.6,31.84,West,270,3.0,4.0,28,0.00,,,0.00,meteohub,2013-01-06 02:05:00,
2013-01-05 19:11:00,20.1,-7.8,31.83,West,270,4.0,4.0,28,0.00,,,0.00,meteohub,2013-01-06 02:11:00,
2013-01-05 19:16:00,20.1,-7.8,31.83,West,270,2.0,5.0,28,0.00,,,0.00,meteohub,2013-01-06 02:16:00,
2013-01-05 19:22:00,19.6,-8.3,31.83,West,270,3.0,5.0,28,0.00,,,0.00,meteohub,2013-01-06 02:22:00,
2013-01-05 19:27:00,19.4,-8.3,31.83,NW,315,4.0,4.0,28,0.00,,,0.00,meteohub,2013-01-06 02:27:00,
2013-01-05 19:32:00,19.2,-11.7,31.84,West,270,4.0,4.0,24,0.00,,,0.00,meteohub,2013-01-06 02:32:00,
2013-01-05 19:37:00,19.2,-10.8,31.84,West,270,4.0,4.0,25,0.00,,,0.00,meteohub,2013-01-06 02:37:00,
2013-01-05 19:42:00,19.0,-11.0,31.84,West,270,4.0,6.0,25,0.00,,,0.00,meteohub,2013-01-06 02:42:00,
2013-01-05 19:47:00,18.9,-11.2,31.84,West,270,4.0,6.0,25,0.00,,,0.00,meteohub,2013-01-06 02:47:00,
2013-01-05 19:52:00,19.0,-11.0,31.84,West,270,3.0,5.0,25,0.00,,,0.00,meteohub,2013-01-06 02:52:00,
2013-01-05 19:58:00,18.7,-11.4,31.84,West,270,2.0,5.0,25,0.00,,,0.00,meteohub,2013-01-06 02:58:00,
2013-01-05 20:03:00,18.3,-12.5,31.84,West,270,2.0,5.0,24,0.00,,,0.00,meteohub,2013-01-06 03:03:00,
2013-01-05 20:09:00,18.0,-12.8,31.84,NW,315,0.0,4.0,24,0.00,,,0.00,meteohub,2013-01-06 03:09:00,
2013-01-05 20:15:00,17.6,-12.3,31.85,North,0,0.0,4.0,25,0.00,,,0.00,meteohub,2013-01-06 03:15:00,
2013-01-05 20:20:00,16.5,-12.5,31.85,East,90,0.0,2.0,26,0.00,,,0.00,meteohub,2013-01-06 03:20:00,
2013-01-05 20:26:00,15.8,-13.0,31.85,West,270,0.0,2.0,26,0.00,,,0.00,meteohub,2013-01-06 03:26:00,
2013-01-05 20:31:00,15.4,-11.9,31.85,NW,315,0.0,0.0,28,0.00,,,0.00,meteohub,2013-01-06 03:31:00,
2013-01-05 20:36:00,14.7,-12.5,31.86,SW,225,0.0,0.0,28,0.00,,,0.00,meteohub,2013-01-06 03:36:00,
2013-01-05 20:42:00,14.0,-13.2,31.86,SW,225,0.0,0.0,28,0.00,,,0.00,meteohub,2013-01-06 03:42:00,
2013-01-05 20:47:00,12.9,-13.4,31.85,SW,225,0.0,0.0,29,0.00,,,0.00,meteohub,2013-01-06 03:47:00,
2013-01-05 20:52:00,12.2,-13.4,31.86,West,270,0.0,0.0,30,0.00,,,0.00,meteohub,2013-01-06 03:52:00,
2013-01-05 20:57:00,11.8,-13.0,31.86,West,270,0.0,0.0,31,0.00,,,0.00,meteohub,2013-01-06 03:57:00,
2013-01-05 21:02:00,11.7,-12.5,31.86,SW,225,0.0,0.0,32,0.00,,,0.00,meteohub,2013-01-06 04:02:00,
2013-01-05 21:07:00,11.7,-12.5,31.86,SW,225,0.0,0.0,32,0.00,,,0.00,meteohub,2013-01-06 04:07:00,
2013-01-05 21:13:00,10.8,-12.6,31.86,SE,135,0.0,0.0,33,0.00,,,0.00,meteohub,2013-01-06 04:13:00,
2013-01-05 21:18:00,10.0,-15.9,31.86,SE,135,0.0,0.0,29,0.00,,,0.00,meteohub,2013-01-06 04:18:00,
2013-01-05 21:24:00,9.3,-16.6,31.86,SE,135,0.0,0.0,29,0.00,,,0.00,meteohub,2013-01-06 04:24:00,
2013-01-05 21:30:00,8.4,-15.3,31.86,SW,225,0.0,0.0,32,0.00,,,0.00,meteohub,2013-01-06 04:30:00,
2013-01-05 21:35:00,7.9,-15.9,31.86,SW,225,0.0,0.0,32,0.00,,,0.00,meteohub,2013-01-06 04:35:00,
2013-01-05 21:41:00,7.5,-15.5,31.86,West,270,0.0,0.0,33,0.00,,,0.00,meteohub,2013-01-06 04:41:00,
2013-01-05 21:47:00,7.7,-14.8,31.86,SW,225,0.0,0.0,34,0.00,,,0.00,meteohub,2013-01-06 04:47:00,
2013-01-05 21:52:00,7.7,-14.8,31.86,SW,225,0.0,0.0,34,0.00,,,0.00,meteohub,2013-01-06 04:52:00,
2013-01-05 21:57:00,7.7,-14.3,31.86,SW,225,0.0,0.0,35,0.00,,,0.00,meteohub,2013-01-06 04:57:00,
2013-01-05 22:00:00,7.5,-14.4,31.86,SW,225,0.0,0.0,35,0.00,,,0.00,meteohub,2013-01-06 05:00:00,
2013-01-05 22:01:00,7.3,-14.6,31.86,SW,225,0.0,0.0,35,0.00,,,0.00,meteohub,2013-01-06 05:01:00,
2013-01-05 22:02:00,7.3,-14.6,31.86,SW,225,0.0,0.0,35,0.00,,,0.00,meteohub,2013-01-06 05:02:00,
2013-01-05 22:03:00,7.3,-14.6,31.86,SW,225,0.0,0.0,35,0.00,,,0.00,meteohub,2013-01-06 05:03:00,
2013-01-05 22:07:00,7.0,-15.0,31.86,SW,225,0.0,0.0,35,0.00,,,0.00,meteohub,2013-01-06 05:07:00,
2013-01-05 22:13:00,6.8,-14.4,31.86,SW,225,0.0,0.0,36,0.00,,,0.00,meteohub,2013-01-06 05:13:00,
2013-01-05 22:19:00,6.6,-13.5,31.86,SW,225,0.0,0.0,38,0.00,,,0.00,meteohub,2013-01-06 05:19:00,
2013-01-05 22:24:00,6.4,-13.7,31.86,SW,225,0.0,0.0,38,0.00,,,0.00,meteohub,2013-01-06 05:24:00,
2013-01-05 22:29:00,6.4,-13.7,31.86,SW,225,0.0,0.0,38,0.00,,,0.00,meteohub,2013-01-06 05:29:00,
2013-01-05 22:35:00,6.4,-13.2,31.85,SW,225,0.0,0.0,39,0.00,,,0.00,meteohub,2013-01-06 05:35:00,
2013-01-05 22:40:00,6.4,-13.2,31.85,SW,225,0.0,0.0,39,0.00,,,0.00,meteohub,2013-01-06 05:40:00,
2013-01-05 22:45:00,6.4,-13.2,31.85,SW,225,0.0,0.0,39,0.00,,,0.00,meteohub,2013-01-06 05:45:00,
2013-01-05 22:51:00,6.6,-13.0,31.86,SE,135,0.0,0.0,39,0.00,,,0.00,meteohub,2013-01-06 05:51:00,
2013-01-05 22:56:00,6.6,-13.0,31.86,South,180,0.0,0.0,39,0.00,,,0.00,meteohub,2013-01-06 05:56:00,
2013-01-05 23:02:00,6.6,-13.0,31.86,South,180,0.0,0.0,39,0.00,,,0.00,meteohub,2013-01-06 06:02:00,
2013-01-05 23:07:00,6.6,-13.0,31.86,South,180,0.0,0.0,39,0.00,,,0.00,meteohub,2013-01-06 06:07:00,
2013-01-05 23:12:00,6.6,-13.0,31.86,SW,225,0.0,0.0,39,0.00,,,0.00,meteohub,2013-01-06 06:12:00,
2013-01-05 23:17:00,6.4,-13.2,31.85,SW,225,0.0,0.0,39,0.00,,,0.00,meteohub,2013-01-06 06:17:00,
2013-01-05 23:22:00,6.3,-13.4,31.85,East,90,0.0,0.0,39,0.00,,,0.00,meteohub,2013-01-06 06:22:00,
2013-01-05 23:27:00,6.4,-13.2,31.85,SW,225,0.0,0.0,39,0.00,,,0.00,meteohub,2013-01-06 06:27:00,
2013-01-05 23:32:00,6.3,-13.4,31.84,NW,315,0.0,0.0,39,0.00,,,0.00,meteohub,2013-01-06 06:32:00,
2013-01-05 23:37:00,5.9,-14.3,31.84,NW,315,0.0,0.0,38,0.00,,,0.00,meteohub,2013-01-06 06:37:00,
2013-01-05 23:42:00,5.5,-14.1,31.84,SW,225,0.0,0.0,39,0.00,,,0.00,meteohub,2013-01-06 06:42:00,
2013-01-05 23:48:00,5.0,-14.6,31.84,SW,225,0.0,0.0,39,0.00,,,0.00,meteohub,2013-01-06 06:48:00,
2013-01-05 23:54:00,4.3,-14.3,31.83,West,270,0.0,0.0,41,0.00,,,0.00,meteohub,2013-01-06 06:54:00,
2013-01-05 23:59:00,4.3,-13.7,31.83,SW,225,0.0,0.0,42,0.00,,,0.00,meteohub,2013-01-06 06:59:00,